sensor_id;sensor_type;location;lat;lon;timestamp;P1;durP1;ratioP1;P2;durP2;ratioP2
48040;SDS011;33815;48.386;11.738;2023-12-14T00:02:13;5.80;;;5.20;;
48040;SDS011;33815;48.386;11.738;2023-12-14T00:04:38;8.20;;;6.50;;
48040;SDS011;33815;48.386;11.738;2023-12-14T00:07:03;8.27;;;5.55;;
48040;SDS011;33815;48.386;11.738;2023-12-14T00:09:28;7.43;;;5.80;;
48040;SDS011;33815;48.386;11.738;2023-12-14T00:11:54;9.37;;;6.73;;
48040;SDS011;33815;48.386;11.738;2023-12-14T00:14:19;10.27;;;6.40;;
48040;SDS011;33815;48.386;11.738;2023-12-14T00:16:44;8.33;;;6.63;;
48040;SDS011;33815;48.386;11.738;2023-12-14T00:19:09;8.30;;;6.95;;
48040;SDS011;33815;48.386;11.738;2023-12-14T00:21:35;7.80;;;7.00;;
48040;SDS011;33815;48.386;11.738;2023-12-14T00:24:00;11.45;;;7.47;;
48040;SDS011;33815;48.386;11.738;2023-12-14T00:26:25;9.57;;;7.37;;
48040;SDS011;33815;48.386;11.738;2023-12-14T00:28:50;9.70;;;7.90;;
48040;SDS011;33815;48.386;11.738;2023-12-14T00:31:16;9.30;;;7.28;;
48040;SDS011;33815;48.386;11.738;2023-12-14T00:33:42;9.40;;;7.88;;
48040;SDS011;33815;48.386;11.738;2023-12-14T00:36:08;11.00;;;8.25;;
48040;SDS011;33815;48.386;11.738;2023-12-14T00:38:33;11.73;;;9.07;;
48040;SDS011;33815;48.386;11.738;2023-12-14T00:40:59;10.80;;;8.63;;
48040;SDS011;33815;48.386;11.738;2023-12-14T00:43:24;11.40;;;8.43;;
48040;SDS011;33815;48.386;11.738;2023-12-14T00:45:49;9.67;;;7.93;;
48040;SDS011;33815;48.386;11.738;2023-12-14T00:48:14;9.25;;;8.18;;
48040;SDS011;33815;48.386;11.738;2023-12-14T00:50:40;9.80;;;7.32;;
48040;SDS011;33815;48.386;11.738;2023-12-14T00:53:05;8.80;;;6.25;;
48040;SDS011;33815;48.386;11.738;2023-12-14T00:55:30;8.05;;;6.47;;
48040;SDS011;33815;48.386;11.738;2023-12-14T00:57:56;6.85;;;6.10;;
48040;SDS011;33815;48.386;11.738;2023-12-14T01:00:21;6.13;;;5.53;;
48040;SDS011;33815;48.386;11.738;2023-12-14T01:02:46;8.55;;;6.70;;
48040;SDS011;33815;48.386;11.738;2023-12-14T01:05:11;6.85;;;5.90;;
48040;SDS011;33815;48.386;11.738;2023-12-14T01:07:37;5.95;;;4.95;;
48040;SDS011;33815;48.386;11.738;2023-12-14T01:10:02;6.88;;;6.18;;
48040;SDS011;33815;48.386;11.738;2023-12-14T01:12:28;7.38;;;6.15;;
48040;SDS011;33815;48.386;11.738;2023-12-14T01:14:53;8.40;;;6.13;;
48040;SDS011;33815;48.386;11.738;2023-12-14T01:17:19;7.67;;;6.80;;
48040;SDS011;33815;48.386;11.738;2023-12-14T01:19:44;9.55;;;7.60;;
48040;SDS011;33815;48.386;11.738;2023-12-14T01:22:10;9.90;;;7.70;;
48040;SDS011;33815;48.386;11.738;2023-12-14T01:24:35;11.65;;;8.77;;
48040;SDS011;33815;48.386;11.738;2023-12-14T01:27:00;10.40;;;8.17;;
48040;SDS011;33815;48.386;11.738;2023-12-14T01:29:26;10.02;;;8.00;;
48040;SDS011;33815;48.386;11.738;2023-12-14T01:31:51;10.00;;;8.30;;
48040;SDS011;33815;48.386;11.738;2023-12-14T01:34:16;10.25;;;8.32;;
48040;SDS011;33815;48.386;11.738;2023-12-14T01:36:42;12.07;;;8.50;;
48040;SDS011;33815;48.386;11.738;2023-12-14T01:39:07;12.00;;;8.82;;
48040;SDS011;33815;48.386;11.738;2023-12-14T01:41:33;11.85;;;9.00;;
48040;SDS011;33815;48.386;11.738;2023-12-14T01:43:58;13.25;;;9.55;;
48040;SDS011;33815;48.386;11.738;2023-12-14T01:46:23;12.77;;;9.65;;
48040;SDS011;33815;48.386;11.738;2023-12-14T01:48:49;12.68;;;9.40;;
48040;SDS011;33815;48.386;11.738;2023-12-14T01:51:15;13.45;;;9.30;;
48040;SDS011;33815;48.386;11.738;2023-12-14T01:53:40;16.45;;;8.95;;
48040;SDS011;33815;48.386;11.738;2023-12-14T01:56:06;12.27;;;9.30;;
48040;SDS011;33815;48.386;11.738;2023-12-14T01:58:31;14.23;;;9.02;;
48040;SDS011;33815;48.386;11.738;2023-12-14T02:01:00;12.60;;;9.50;;
48040;SDS011;33815;48.386;11.738;2023-12-14T02:03:30;12.07;;;9.48;;
48040;SDS011;33815;48.386;11.738;2023-12-14T02:05:55;13.50;;;9.43;;
48040;SDS011;33815;48.386;11.738;2023-12-14T02:08:22;12.52;;;9.27;;
48040;SDS011;33815;48.386;11.738;2023-12-14T02:10:48;15.50;;;9.82;;
48040;SDS011;33815;48.386;11.738;2023-12-14T02:13:13;11.20;;;8.70;;
48040;SDS011;33815;48.386;11.738;2023-12-14T02:15:38;13.05;;;9.35;;
48040;SDS011;33815;48.386;11.738;2023-12-14T02:18:04;13.55;;;9.35;;
48040;SDS011;33815;48.386;11.738;2023-12-14T02:20:29;12.85;;;9.65;;
48040;SDS011;33815;48.386;11.738;2023-12-14T02:22:54;11.43;;;8.30;;
48040;SDS011;33815;48.386;11.738;2023-12-14T02:25:20;12.25;;;9.20;;
48040;SDS011;33815;48.386;11.738;2023-12-14T02:27:47;12.90;;;9.18;;
48040;SDS011;33815;48.386;11.738;2023-12-14T02:30:13;14.48;;;8.80;;
48040;SDS011;33815;48.386;11.738;2023-12-14T02:32:39;10.88;;;8.68;;
48040;SDS011;33815;48.386;11.738;2023-12-14T02:35:05;12.27;;;8.63;;
48040;SDS011;33815;48.386;11.738;2023-12-14T02:37:31;10.57;;;8.45;;
48040;SDS011;33815;48.386;11.738;2023-12-14T02:39:57;14.73;;;8.90;;
48040;SDS011;33815;48.386;11.738;2023-12-14T02:42:23;15.40;;;9.30;;
48040;SDS011;33815;48.386;11.738;2023-12-14T02:44:49;12.68;;;8.43;;
48040;SDS011;33815;48.386;11.738;2023-12-14T02:47:15;11.52;;;8.30;;
48040;SDS011;33815;48.386;11.738;2023-12-14T02:49:40;13.02;;;8.88;;
48040;SDS011;33815;48.386;11.738;2023-12-14T02:52:06;10.98;;;8.60;;
48040;SDS011;33815;48.386;11.738;2023-12-14T02:54:31;13.67;;;9.57;;
48040;SDS011;33815;48.386;11.738;2023-12-14T02:56:56;12.48;;;9.35;;
48040;SDS011;33815;48.386;11.738;2023-12-14T02:59:21;14.00;;;10.20;;
48040;SDS011;33815;48.386;11.738;2023-12-14T03:01:47;12.80;;;9.57;;
48040;SDS011;33815;48.386;11.738;2023-12-14T03:04:12;15.32;;;10.75;;
48040;SDS011;33815;48.386;11.738;2023-12-14T03:06:37;12.88;;;10.00;;
48040;SDS011;33815;48.386;11.738;2023-12-14T03:09:03;13.18;;;9.60;;
48040;SDS011;33815;48.386;11.738;2023-12-14T03:11:28;16.73;;;10.82;;
48040;SDS011;33815;48.386;11.738;2023-12-14T03:13:53;13.38;;;9.88;;
48040;SDS011;33815;48.386;11.738;2023-12-14T03:16:19;15.48;;;10.13;;
48040;SDS011;33815;48.386;11.738;2023-12-14T03:18:44;15.57;;;10.50;;
48040;SDS011;33815;48.386;11.738;2023-12-14T03:21:09;15.10;;;10.38;;
48040;SDS011;33815;48.386;11.738;2023-12-14T03:23:35;16.75;;;11.63;;
48040;SDS011;33815;48.386;11.738;2023-12-14T03:26:01;17.20;;;11.27;;
48040;SDS011;33815;48.386;11.738;2023-12-14T03:28:27;16.35;;;11.00;;
48040;SDS011;33815;48.386;11.738;2023-12-14T03:30:52;16.40;;;11.27;;
48040;SDS011;33815;48.386;11.738;2023-12-14T03:33:17;15.13;;;10.27;;
48040;SDS011;33815;48.386;11.738;2023-12-14T03:35:43;18.70;;;10.65;;
48040;SDS011;33815;48.386;11.738;2023-12-14T03:38:09;15.32;;;10.90;;
48040;SDS011;33815;48.386;11.738;2023-12-14T03:40:34;22.38;;;12.38;;
48040;SDS011;33815;48.386;11.738;2023-12-14T03:43:00;15.98;;;11.38;;
48040;SDS011;33815;48.386;11.738;2023-12-14T03:45:26;15.55;;;10.20;;
48040;SDS011;33815;48.386;11.738;2023-12-14T03:47:51;14.48;;;10.90;;
48040;SDS011;33815;48.386;11.738;2023-12-14T03:50:16;18.87;;;11.93;;
48040;SDS011;33815;48.386;11.738;2023-12-14T03:52:42;15.45;;;10.85;;
48040;SDS011;33815;48.386;11.738;2023-12-14T03:55:07;14.70;;;10.93;;
48040;SDS011;33815;48.386;11.738;2023-12-14T03:57:33;18.80;;;11.23;;
48040;SDS011;33815;48.386;11.738;2023-12-14T03:59:58;15.00;;;10.15;;
48040;SDS011;33815;48.386;11.738;2023-12-14T04:02:23;14.48;;;10.32;;
48040;SDS011;33815;48.386;11.738;2023-12-14T04:04:49;14.05;;;10.55;;
48040;SDS011;33815;48.386;11.738;2023-12-14T04:07:14;17.60;;;11.75;;
48040;SDS011;33815;48.386;11.738;2023-12-14T04:09:39;18.47;;;11.93;;
48040;SDS011;33815;48.386;11.738;2023-12-14T04:12:05;18.30;;;11.77;;
48040;SDS011;33815;48.386;11.738;2023-12-14T04:14:30;19.45;;;12.23;;
48040;SDS011;33815;48.386;11.738;2023-12-14T04:16:56;18.75;;;12.55;;
48040;SDS011;33815;48.386;11.738;2023-12-14T04:19:21;20.83;;;13.10;;
48040;SDS011;33815;48.386;11.738;2023-12-14T04:21:47;22.00;;;13.43;;
48040;SDS011;33815;48.386;11.738;2023-12-14T04:24:12;19.50;;;13.40;;
48040;SDS011;33815;48.386;11.738;2023-12-14T04:26:38;23.38;;;14.27;;
48040;SDS011;33815;48.386;11.738;2023-12-14T04:29:04;23.05;;;13.88;;
48040;SDS011;33815;48.386;11.738;2023-12-14T04:31:30;20.75;;;13.73;;
48040;SDS011;33815;48.386;11.738;2023-12-14T04:33:56;26.02;;;14.95;;
48040;SDS011;33815;48.386;11.738;2023-12-14T04:36:21;24.83;;;14.65;;
48040;SDS011;33815;48.386;11.738;2023-12-14T04:38:46;24.97;;;15.30;;
48040;SDS011;33815;48.386;11.738;2023-12-14T04:41:12;19.95;;;14.52;;
48040;SDS011;33815;48.386;11.738;2023-12-14T04:43:37;26.95;;;15.43;;
48040;SDS011;33815;48.386;11.738;2023-12-14T04:46:03;23.77;;;15.27;;
48040;SDS011;33815;48.386;11.738;2023-12-14T04:48:28;22.80;;;14.80;;
48040;SDS011;33815;48.386;11.738;2023-12-14T04:50:54;24.98;;;15.95;;
48040;SDS011;33815;48.386;11.738;2023-12-14T04:53:19;26.03;;;15.40;;
48040;SDS011;33815;48.386;11.738;2023-12-14T04:55:44;22.67;;;14.80;;
48040;SDS011;33815;48.386;11.738;2023-12-14T04:58:09;22.70;;;15.30;;
48040;SDS011;33815;48.386;11.738;2023-12-14T05:00:35;24.38;;;15.18;;
48040;SDS011;33815;48.386;11.738;2023-12-14T05:03:00;26.98;;;14.27;;
48040;SDS011;33815;48.386;11.738;2023-12-14T05:05:25;23.83;;;15.10;;
48040;SDS011;33815;48.386;11.738;2023-12-14T05:07:50;25.45;;;16.98;;
48040;SDS011;33815;48.386;11.738;2023-12-14T05:10:16;29.08;;;16.70;;
48040;SDS011;33815;48.386;11.738;2023-12-14T05:12:41;23.05;;;15.63;;
48040;SDS011;33815;48.386;11.738;2023-12-14T05:15:06;29.83;;;17.40;;
48040;SDS011;33815;48.386;11.738;2023-12-14T05:17:32;22.83;;;14.90;;
48040;SDS011;33815;48.386;11.738;2023-12-14T05:19:58;24.70;;;14.70;;
48040;SDS011;33815;48.386;11.738;2023-12-14T05:22:23;25.00;;;15.60;;
48040;SDS011;33815;48.386;11.738;2023-12-14T05:24:49;25.02;;;15.60;;
48040;SDS011;33815;48.386;11.738;2023-12-14T05:27:14;24.92;;;15.85;;
48040;SDS011;33815;48.386;11.738;2023-12-14T05:29:39;23.48;;;15.63;;
48040;SDS011;33815;48.386;11.738;2023-12-14T05:32:05;24.20;;;15.82;;
48040;SDS011;33815;48.386;11.738;2023-12-14T05:34:30;26.17;;;16.48;;
48040;SDS011;33815;48.386;11.738;2023-12-14T05:36:55;25.67;;;16.60;;
48040;SDS011;33815;48.386;11.738;2023-12-14T05:39:21;25.52;;;16.85;;
48040;SDS011;33815;48.386;11.738;2023-12-14T05:41:46;27.33;;;15.82;;
48040;SDS011;33815;48.386;11.738;2023-12-14T05:44:11;26.15;;;16.02;;
48040;SDS011;33815;48.386;11.738;2023-12-14T05:46:38;28.15;;;17.10;;
48040;SDS011;33815;48.386;11.738;2023-12-14T05:49:03;25.35;;;14.98;;
48040;SDS011;33815;48.386;11.738;2023-12-14T05:51:31;25.30;;;15.43;;
48040;SDS011;33815;48.386;11.738;2023-12-14T05:53:58;25.15;;;15.95;;
48040;SDS011;33815;48.386;11.738;2023-12-14T05:56:26;24.77;;;15.25;;
48040;SDS011;33815;48.386;11.738;2023-12-14T05:58:51;25.70;;;16.10;;
48040;SDS011;33815;48.386;11.738;2023-12-14T06:01:20;24.83;;;15.68;;
48040;SDS011;33815;48.386;11.738;2023-12-14T06:03:45;23.15;;;15.15;;
48040;SDS011;33815;48.386;11.738;2023-12-14T06:06:11;26.20;;;15.45;;
48040;SDS011;33815;48.386;11.738;2023-12-14T06:08:38;24.02;;;16.13;;
48040;SDS011;33815;48.386;11.738;2023-12-14T06:11:03;22.52;;;14.65;;
48040;SDS011;33815;48.386;11.738;2023-12-14T06:13:31;26.42;;;15.35;;
48040;SDS011;33815;48.386;11.738;2023-12-14T06:15:56;21.95;;;15.57;;
48040;SDS011;33815;48.386;11.738;2023-12-14T06:18:21;21.50;;;14.75;;
48040;SDS011;33815;48.386;11.738;2023-12-14T06:20:46;21.25;;;14.45;;
48040;SDS011;33815;48.386;11.738;2023-12-14T06:23:12;22.48;;;14.85;;
48040;SDS011;33815;48.386;11.738;2023-12-14T06:25:37;23.23;;;14.68;;
48040;SDS011;33815;48.386;11.738;2023-12-14T06:28:02;22.27;;;15.27;;
48040;SDS011;33815;48.386;11.738;2023-12-14T06:30:28;19.15;;;13.52;;
48040;SDS011;33815;48.386;11.738;2023-12-14T06:32:53;20.48;;;13.13;;
48040;SDS011;33815;48.386;11.738;2023-12-14T06:35:18;25.13;;;15.87;;
48040;SDS011;33815;48.386;11.738;2023-12-14T06:37:43;20.30;;;14.27;;
48040;SDS011;33815;48.386;11.738;2023-12-14T06:40:09;18.20;;;12.95;;
48040;SDS011;33815;48.386;11.738;2023-12-14T06:42:35;20.70;;;13.70;;
48040;SDS011;33815;48.386;11.738;2023-12-14T06:45:02;21.23;;;13.68;;
48040;SDS011;33815;48.386;11.738;2023-12-14T06:47:27;23.23;;;14.70;;
48040;SDS011;33815;48.386;11.738;2023-12-14T06:49:53;22.08;;;14.32;;
48040;SDS011;33815;48.386;11.738;2023-12-14T06:52:18;20.75;;;14.13;;
48040;SDS011;33815;48.386;11.738;2023-12-14T06:54:44;19.15;;;12.65;;
48040;SDS011;33815;48.386;11.738;2023-12-14T06:57:09;22.15;;;14.88;;
48040;SDS011;33815;48.386;11.738;2023-12-14T06:59:34;25.30;;;13.97;;
48040;SDS011;33815;48.386;11.738;2023-12-14T07:01:59;19.73;;;13.63;;
48040;SDS011;33815;48.386;11.738;2023-12-14T07:04:25;21.52;;;13.70;;
48040;SDS011;33815;48.386;11.738;2023-12-14T07:06:51;22.77;;;14.00;;
48040;SDS011;33815;48.386;11.738;2023-12-14T07:09:17;19.48;;;12.88;;
48040;SDS011;33815;48.386;11.738;2023-12-14T07:11:43;17.63;;;12.00;;
48040;SDS011;33815;48.386;11.738;2023-12-14T07:14:08;18.42;;;12.65;;
48040;SDS011;33815;48.386;11.738;2023-12-14T07:16:33;19.88;;;12.63;;
48040;SDS011;33815;48.386;11.738;2023-12-14T07:18:59;15.95;;;11.98;;
48040;SDS011;33815;48.386;11.738;2023-12-14T07:21:24;20.45;;;13.98;;
48040;SDS011;33815;48.386;11.738;2023-12-14T07:23:49;19.83;;;14.60;;
48040;SDS011;33815;48.386;11.738;2023-12-14T07:26:15;17.60;;;13.10;;
48040;SDS011;33815;48.386;11.738;2023-12-14T07:28:40;16.45;;;13.00;;
48040;SDS011;33815;48.386;11.738;2023-12-14T07:31:05;21.40;;;14.38;;
48040;SDS011;33815;48.386;11.738;2023-12-14T07:33:31;18.83;;;13.02;;
48040;SDS011;33815;48.386;11.738;2023-12-14T07:35:56;19.23;;;12.55;;
48040;SDS011;33815;48.386;11.738;2023-12-14T07:38:21;15.55;;;11.60;;
48040;SDS011;33815;48.386;11.738;2023-12-14T07:40:46;18.33;;;12.18;;
48040;SDS011;33815;48.386;11.738;2023-12-14T07:43:12;22.25;;;13.18;;
48040;SDS011;33815;48.386;11.738;2023-12-14T07:45:37;22.45;;;14.43;;
48040;SDS011;33815;48.386;11.738;2023-12-14T07:48:02;20.13;;;12.65;;
48040;SDS011;33815;48.386;11.738;2023-12-14T07:50:29;17.45;;;12.05;;
48040;SDS011;33815;48.386;11.738;2023-12-14T07:52:54;20.00;;;13.65;;
48040;SDS011;33815;48.386;11.738;2023-12-14T07:55:20;21.98;;;15.43;;
48040;SDS011;33815;48.386;11.738;2023-12-14T07:57:45;22.00;;;14.32;;
48040;SDS011;33815;48.386;11.738;2023-12-14T08:00:11;21.25;;;13.25;;
48040;SDS011;33815;48.386;11.738;2023-12-14T08:02:37;22.80;;;12.27;;
48040;SDS011;33815;48.386;11.738;2023-12-14T08:05:03;19.13;;;13.25;;
48040;SDS011;33815;48.386;11.738;2023-12-14T08:07:29;21.70;;;15.15;;
48040;SDS011;33815;48.386;11.738;2023-12-14T08:09:55;21.67;;;14.05;;
48040;SDS011;33815;48.386;11.738;2023-12-14T08:12:21;20.52;;;12.77;;
48040;SDS011;33815;48.386;11.738;2023-12-14T08:14:47;20.30;;;13.35;;
48040;SDS011;33815;48.386;11.738;2023-12-14T08:17:12;21.08;;;13.00;;
48040;SDS011;33815;48.386;11.738;2023-12-14T08:19:37;19.67;;;12.13;;
48040;SDS011;33815;48.386;11.738;2023-12-14T08:22:03;17.73;;;12.60;;
48040;SDS011;33815;48.386;11.738;2023-12-14T08:24:28;17.85;;;11.07;;
48040;SDS011;33815;48.386;11.738;2023-12-14T08:26:53;15.43;;;11.20;;
48040;SDS011;33815;48.386;11.738;2023-12-14T08:29:19;18.15;;;11.07;;
48040;SDS011;33815;48.386;11.738;2023-12-14T08:31:44;20.75;;;11.68;;
48040;SDS011;33815;48.386;11.738;2023-12-14T08:34:09;19.17;;;11.85;;
48040;SDS011;33815;48.386;11.738;2023-12-14T08:36:35;19.10;;;10.85;;
48040;SDS011;33815;48.386;11.738;2023-12-14T08:39:00;20.88;;;13.05;;
48040;SDS011;33815;48.386;11.738;2023-12-14T08:41:26;26.20;;;15.50;;
48040;SDS011;33815;48.386;11.738;2023-12-14T08:43:51;37.78;;;20.98;;
48040;SDS011;33815;48.386;11.738;2023-12-14T08:46:17;23.23;;;15.02;;
48040;SDS011;33815;48.386;11.738;2023-12-14T08:48:42;49.20;;;20.98;;
48040;SDS011;33815;48.386;11.738;2023-12-14T08:51:07;17.75;;;11.05;;
48040;SDS011;33815;48.386;11.738;2023-12-14T08:53:32;15.07;;;9.95;;
48040;SDS011;33815;48.386;11.738;2023-12-14T08:55:58;14.65;;;9.10;;
48040;SDS011;33815;48.386;11.738;2023-12-14T08:58:23;14.27;;;9.63;;
48040;SDS011;33815;48.386;11.738;2023-12-14T09:00:48;10.07;;;7.50;;
48040;SDS011;33815;48.386;11.738;2023-12-14T09:03:18;12.05;;;8.13;;
48040;SDS011;33815;48.386;11.738;2023-12-14T09:05:44;12.63;;;8.25;;
48040;SDS011;33815;48.386;11.738;2023-12-14T09:08:10;12.02;;;7.80;;
48040;SDS011;33815;48.386;11.738;2023-12-14T09:10:36;11.32;;;8.73;;
48040;SDS011;33815;48.386;11.738;2023-12-14T09:13:02;10.35;;;8.18;;
48040;SDS011;33815;48.386;11.738;2023-12-14T09:15:29;8.88;;;7.93;;
48040;SDS011;33815;48.386;11.738;2023-12-14T09:17:55;10.20;;;8.57;;
48040;SDS011;33815;48.386;11.738;2023-12-14T09:20:21;12.73;;;9.05;;
48040;SDS011;33815;48.386;11.738;2023-12-14T09:22:46;11.70;;;8.25;;
48040;SDS011;33815;48.386;11.738;2023-12-14T09:25:11;12.77;;;8.52;;
48040;SDS011;33815;48.386;11.738;2023-12-14T09:27:37;10.18;;;7.47;;
48040;SDS011;33815;48.386;11.738;2023-12-14T09:30:02;9.75;;;7.10;;
48040;SDS011;33815;48.386;11.738;2023-12-14T09:32:28;8.55;;;7.13;;
48040;SDS011;33815;48.386;11.738;2023-12-14T09:34:53;9.55;;;7.10;;
48040;SDS011;33815;48.386;11.738;2023-12-14T09:37:21;7.20;;;6.00;;
48040;SDS011;33815;48.386;11.738;2023-12-14T09:39:46;10.45;;;7.10;;
48040;SDS011;33815;48.386;11.738;2023-12-14T09:42:12;9.73;;;7.70;;
48040;SDS011;33815;48.386;11.738;2023-12-14T09:44:41;8.88;;;6.85;;
48040;SDS011;33815;48.386;11.738;2023-12-14T09:47:08;7.25;;;6.28;;
48040;SDS011;33815;48.386;11.738;2023-12-14T09:49:33;12.07;;;8.10;;
48040;SDS011;33815;48.386;11.738;2023-12-14T09:52:00;9.52;;;7.07;;
48040;SDS011;33815;48.386;11.738;2023-12-14T09:54:26;8.05;;;6.07;;
48040;SDS011;33815;48.386;11.738;2023-12-14T09:56:52;8.50;;;6.60;;
48040;SDS011;33815;48.386;11.738;2023-12-14T09:59:18;7.85;;;6.22;;
48040;SDS011;33815;48.386;11.738;2023-12-14T10:01:43;9.40;;;6.90;;
48040;SDS011;33815;48.386;11.738;2023-12-14T10:04:09;8.15;;;6.63;;
48040;SDS011;33815;48.386;11.738;2023-12-14T10:06:36;8.05;;;6.30;;
48040;SDS011;33815;48.386;11.738;2023-12-14T10:09:05;9.10;;;6.10;;
48040;SDS011;33815;48.386;11.738;2023-12-14T10:11:37;9.10;;;6.20;;
48040;SDS011;33815;48.386;11.738;2023-12-14T10:14:03;9.63;;;5.85;;
48040;SDS011;33815;48.386;11.738;2023-12-14T10:16:42;7.80;;;5.75;;
48040;SDS011;33815;48.386;11.738;2023-12-14T10:19:07;7.60;;;5.30;;
48040;SDS011;33815;48.386;11.738;2023-12-14T10:21:32;7.60;;;4.77;;
48040;SDS011;33815;48.386;11.738;2023-12-14T10:23:57;7.23;;;4.73;;
48040;SDS011;33815;48.386;11.738;2023-12-14T10:26:25;9.18;;;4.80;;
48040;SDS011;33815;48.386;11.738;2023-12-14T10:28:51;7.57;;;4.70;;
48040;SDS011;33815;48.386;11.738;2023-12-14T10:31:20;11.13;;;5.05;;
48040;SDS011;33815;48.386;11.738;2023-12-14T10:33:46;6.32;;;4.28;;
48040;SDS011;33815;48.386;11.738;2023-12-14T10:36:16;5.40;;;4.90;;
48040;SDS011;33815;48.386;11.738;2023-12-14T10:38:44;5.90;;;4.95;;
48040;SDS011;33815;48.386;11.738;2023-12-14T10:41:13;5.80;;;4.78;;
48040;SDS011;33815;48.386;11.738;2023-12-14T10:43:38;5.00;;;4.05;;
48040;SDS011;33815;48.386;11.738;2023-12-14T10:46:06;7.30;;;4.47;;
48040;SDS011;33815;48.386;11.738;2023-12-14T10:48:32;5.55;;;3.83;;
48040;SDS011;33815;48.386;11.738;2023-12-14T10:51:01;3.78;;;3.47;;
48040;SDS011;33815;48.386;11.738;2023-12-14T10:53:26;3.92;;;3.50;;
48040;SDS011;33815;48.386;11.738;2023-12-14T10:55:52;4.65;;;3.38;;
48040;SDS011;33815;48.386;11.738;2023-12-14T10:58:19;6.10;;;2.50;;
48040;SDS011;33815;48.386;11.738;2023-12-14T11:00:44;5.65;;;3.20;;
48040;SDS011;33815;48.386;11.738;2023-12-14T11:03:25;4.13;;;3.45;;
48040;SDS011;33815;48.386;11.738;2023-12-14T11:05:51;4.82;;;2.70;;
48040;SDS011;33815;48.386;11.738;2023-12-14T11:08:16;4.25;;;3.30;;
48040;SDS011;33815;48.386;11.738;2023-12-14T11:10:43;2.65;;;2.45;;
48040;SDS011;33815;48.386;11.738;2023-12-14T11:13:17;4.70;;;3.33;;
48040;SDS011;33815;48.386;11.738;2023-12-14T11:15:50;5.25;;;2.85;;
48040;SDS011;33815;48.386;11.738;2023-12-14T11:18:22;3.25;;;2.95;;
48040;SDS011;33815;48.386;11.738;2023-12-14T11:25:54;2.97;;;2.67;;
48040;SDS011;33815;48.386;11.738;2023-12-14T11:28:21;3.65;;;3.35;;
48040;SDS011;33815;48.386;11.738;2023-12-14T11:30:47;5.15;;;3.83;;
48040;SDS011;33815;48.386;11.738;2023-12-14T11:33:13;4.65;;;3.25;;
48040;SDS011;33815;48.386;11.738;2023-12-14T11:35:39;4.18;;;3.45;;
48040;SDS011;33815;48.386;11.738;2023-12-14T11:38:05;5.18;;;2.90;;
48040;SDS011;33815;48.386;11.738;2023-12-14T11:40:37;4.45;;;3.30;;
48040;SDS011;33815;48.386;11.738;2023-12-14T11:43:03;9.10;;;6.10;;
48040;SDS011;33815;48.386;11.738;2023-12-14T11:45:33;6.75;;;3.70;;
48040;SDS011;33815;48.386;11.738;2023-12-14T11:48:05;4.30;;;3.08;;
48040;SDS011;33815;48.386;11.738;2023-12-14T11:50:32;3.60;;;3.28;;
48040;SDS011;33815;48.386;11.738;2023-12-14T11:52:58;3.80;;;3.20;;
48040;SDS011;33815;48.386;11.738;2023-12-14T11:55:26;5.15;;;3.53;;
48040;SDS011;33815;48.386;11.738;2023-12-14T11:57:52;5.68;;;3.47;;
48040;SDS011;33815;48.386;11.738;2023-12-14T12:00:18;3.40;;;2.65;;
48040;SDS011;33815;48.386;11.738;2023-12-14T12:02:48;7.20;;;4.28;;
48040;SDS011;33815;48.386;11.738;2023-12-14T12:05:13;5.40;;;3.85;;
48040;SDS011;33815;48.386;11.738;2023-12-14T12:07:43;5.35;;;2.85;;
48040;SDS011;33815;48.386;11.738;2023-12-14T12:10:09;7.60;;;3.78;;
48040;SDS011;33815;48.386;11.738;2023-12-14T12:12:35;5.90;;;3.83;;
48040;SDS011;33815;48.386;11.738;2023-12-14T12:15:00;4.78;;;3.55;;
48040;SDS011;33815;48.386;11.738;2023-12-14T12:17:26;3.75;;;3.10;;
48040;SDS011;33815;48.386;11.738;2023-12-14T12:19:51;4.68;;;3.55;;
48040;SDS011;33815;48.386;11.738;2023-12-14T12:22:17;9.40;;;4.28;;
48040;SDS011;33815;48.386;11.738;2023-12-14T12:24:42;9.00;;;4.18;;
48040;SDS011;33815;48.386;11.738;2023-12-14T12:27:07;7.47;;;3.93;;
48040;SDS011;33815;48.386;11.738;2023-12-14T12:29:34;3.42;;;2.90;;
48040;SDS011;33815;48.386;11.738;2023-12-14T12:31:59;4.22;;;3.20;;
48040;SDS011;33815;48.386;11.738;2023-12-14T12:34:24;6.60;;;3.60;;
48040;SDS011;33815;48.386;11.738;2023-12-14T12:36:50;4.22;;;3.67;;
48040;SDS011;33815;48.386;11.738;2023-12-14T12:39:15;5.40;;;3.47;;
48040;SDS011;33815;48.386;11.738;2023-12-14T12:41:40;5.43;;;3.45;;
48040;SDS011;33815;48.386;11.738;2023-12-14T12:44:06;4.45;;;3.40;;
48040;SDS011;33815;48.386;11.738;2023-12-14T12:46:33;5.95;;;3.28;;
48040;SDS011;33815;48.386;11.738;2023-12-14T12:49:00;9.82;;;3.42;;
48040;SDS011;33815;48.386;11.738;2023-12-14T12:51:26;4.68;;;3.75;;
48040;SDS011;33815;48.386;11.738;2023-12-14T12:53:52;7.15;;;3.30;;
48040;SDS011;33815;48.386;11.738;2023-12-14T12:56:18;9.65;;;3.65;;
48040;SDS011;33815;48.386;11.738;2023-12-14T12:58:44;4.65;;;3.90;;
48040;SDS011;33815;48.386;11.738;2023-12-14T13:01:09;4.47;;;3.42;;
48040;SDS011;33815;48.386;11.738;2023-12-14T13:03:34;6.05;;;4.10;;
48040;SDS011;33815;48.386;11.738;2023-12-14T13:06:00;7.60;;;4.43;;
48040;SDS011;33815;48.386;11.738;2023-12-14T13:08:25;5.75;;;3.88;;
48040;SDS011;33815;48.386;11.738;2023-12-14T13:10:51;4.22;;;3.58;;
48040;SDS011;33815;48.386;11.738;2023-12-14T13:13:19;7.00;;;3.75;;
48040;SDS011;33815;48.386;11.738;2023-12-14T13:15:44;4.93;;;3.35;;
48040;SDS011;33815;48.386;11.738;2023-12-14T13:18:09;5.85;;;3.45;;
48040;SDS011;33815;48.386;11.738;2023-12-14T13:20:34;4.72;;;3.08;;
48040;SDS011;33815;48.386;11.738;2023-12-14T13:23:00;5.25;;;3.80;;
48040;SDS011;33815;48.386;11.738;2023-12-14T13:25:26;8.15;;;3.63;;
48040;SDS011;33815;48.386;11.738;2023-12-14T13:27:51;4.35;;;2.92;;
48040;SDS011;33815;48.386;11.738;2023-12-14T13:30:17;8.32;;;2.97;;
48040;SDS011;33815;48.386;11.738;2023-12-14T13:32:42;5.65;;;3.40;;
48040;SDS011;33815;48.386;11.738;2023-12-14T13:35:08;4.07;;;2.92;;
48040;SDS011;33815;48.386;11.738;2023-12-14T13:37:34;6.28;;;3.30;;
48040;SDS011;33815;48.386;11.738;2023-12-14T13:39:59;3.97;;;2.92;;
48040;SDS011;33815;48.386;11.738;2023-12-14T13:42:24;9.57;;;3.03;;
48040;SDS011;33815;48.386;11.738;2023-12-14T13:44:50;5.63;;;2.92;;
48040;SDS011;33815;48.386;11.738;2023-12-14T13:47:15;5.00;;;3.17;;
48040;SDS011;33815;48.386;11.738;2023-12-14T13:49:40;3.70;;;2.90;;
48040;SDS011;33815;48.386;11.738;2023-12-14T13:52:06;4.38;;;3.58;;
48040;SDS011;33815;48.386;11.738;2023-12-14T13:54:31;6.68;;;3.55;;
48040;SDS011;33815;48.386;11.738;2023-12-14T13:56:56;5.38;;;3.22;;
48040;SDS011;33815;48.386;11.738;2023-12-14T13:59:22;5.93;;;3.60;;
48040;SDS011;33815;48.386;11.738;2023-12-14T14:01:47;5.78;;;3.92;;
48040;SDS011;33815;48.386;11.738;2023-12-14T14:04:19;4.40;;;3.65;;
48040;SDS011;33815;48.386;11.738;2023-12-14T14:06:44;7.47;;;3.85;;
48040;SDS011;33815;48.386;11.738;2023-12-14T14:09:11;6.15;;;3.90;;
48040;SDS011;33815;48.386;11.738;2023-12-14T14:11:36;5.78;;;3.80;;
48040;SDS011;33815;48.386;11.738;2023-12-14T14:14:02;7.57;;;4.22;;
48040;SDS011;33815;48.386;11.738;2023-12-14T14:16:28;4.78;;;3.70;;
48040;SDS011;33815;48.386;11.738;2023-12-14T14:18:53;6.18;;;4.30;;